createdAt,value
2022-08-25T00:00:25.585Z,101530.81
2022-08-25T00:02:59.348Z,101519.47
2022-08-25T00:05:34.611Z,101515.91
2022-08-25T00:08:06.591Z,101502.47
2022-08-25T00:10:42.513Z,101513.78
2022-08-25T00:13:14.585Z,101512.34
2022-08-25T00:15:48.767Z,101511.72
2022-08-25T00:18:20.390Z,101509.06
2022-08-25T00:20:51.490Z,101510.09
2022-08-25T00:23:21.684Z,101512.06
2022-08-25T00:25:51.034Z,101510.91
2022-08-25T00:28:20.378Z,101512.84
2022-08-25T00:30:50.131Z,101515.94
2022-08-25T00:33:21.121Z,101515.47
2022-08-25T00:35:50.636Z,101485.84
2022-08-25T00:38:20.239Z,101497.19
2022-08-25T00:41:05.898Z,101506.78
2022-08-25T00:43:38.578Z,101513.75
2022-08-25T00:46:07.732Z,101518.47
2022-08-25T00:48:40.483Z,101518.66
2022-08-25T00:51:14.815Z,101493.06
2022-08-25T00:53:44.694Z,101505.88
2022-08-25T00:56:15.571Z,101516.09
2022-08-25T00:58:53.815Z,101496.69
2022-08-25T01:01:23.051Z,101516.56
2022-08-25T01:03:54.107Z,101525.53
2022-08-25T01:06:24.707Z,101517.41
2022-08-25T01:08:54.774Z,101522.94
2022-08-25T01:11:24.123Z,101490.53
2022-08-25T01:13:58.337Z,101511.94
2022-08-25T01:16:27.532Z,101523.47
2022-08-25T01:19:00.706Z,101509.38
2022-08-25T01:21:42.627Z,101524.94
2022-08-25T01:24:17.787Z,101524.44
2022-08-25T01:26:46.997Z,101489.63
2022-08-25T01:29:26.470Z,101523.81
2022-08-25T01:31:59.772Z,101514.09
2022-08-25T01:34:32.082Z,101516.38
2022-08-25T01:37:03.763Z,101524.00
2022-08-25T01:39:36.724Z,101481.06
2022-08-25T01:42:24.619Z,101520.28
2022-08-25T01:44:54.364Z,101523.03
2022-08-25T01:47:24.072Z,101510.22
2022-08-25T01:49:53.323Z,101533.41
2022-08-25T01:52:29.846Z,101533.91
2022-08-25T01:55:02.059Z,101534.06
2022-08-25T01:57:32.589Z,101514.59
2022-08-25T02:00:01.882Z,101532.13
2022-08-25T02:02:42.773Z,101529.69
2022-08-25T02:05:18.477Z,101543.66
2022-08-25T02:07:53.795Z,101530.34
2022-08-25T02:10:24.324Z,101521.94
2022-08-25T02:12:54.691Z,101542.34
2022-08-25T02:15:24.197Z,101532.81
2022-08-25T02:17:53.359Z,101539.94
2022-08-25T02:20:24.065Z,101520.13
2022-08-25T02:22:56.856Z,101541.56
2022-08-25T02:25:26.404Z,101544.63
2022-08-25T02:27:55.664Z,101543.19
2022-08-25T02:30:25.031Z,101542.84
2022-08-25T02:32:54.764Z,101534.72
2022-08-25T02:35:24.183Z,101551.13
2022-08-25T02:37:55.324Z,101539.94
2022-08-25T02:40:24.866Z,101546.91
2022-08-25T02:42:55.655Z,101553.41
2022-08-25T02:45:25.425Z,101543.81
2022-08-25T02:47:54.737Z,101549.97
2022-08-25T02:50:24.190Z,101554.69
2022-08-25T02:52:55.126Z,101555.81
2022-08-25T02:55:24.374Z,101556.47
2022-08-25T02:57:53.514Z,101539.28
2022-08-25T03:00:23.176Z,101561.66
2022-08-25T03:02:52.492Z,101548.03
2022-08-25T03:05:21.593Z,101547.56
2022-08-25T03:07:50.931Z,101551.59
2022-08-25T03:10:24.837Z,101547.56
2022-08-25T03:12:54.179Z,101559.06
2022-08-25T03:15:25.744Z,101555.50
2022-08-25T03:17:56.186Z,101550.94
2022-08-25T03:20:29.841Z,101555.81
2022-08-25T03:22:59.308Z,101550.59
2022-08-25T03:25:47.401Z,101556.16
2022-08-25T03:28:17.504Z,101545.28
2022-08-25T03:30:47.033Z,101561.00
2022-08-25T03:33:22.746Z,101556.63
2022-08-25T03:35:51.846Z,101544.28
2022-08-25T03:38:21.157Z,101564.56
2022-08-25T03:40:52.027Z,101551.91
2022-08-25T03:43:22.537Z,101556.75
2022-08-25T03:45:51.849Z,101563.41
2022-08-25T03:48:21.207Z,101560.66
2022-08-25T03:50:54.880Z,101550.91
2022-08-25T03:53:24.160Z,101556.75
2022-08-25T03:55:54.804Z,101550.44
2022-08-25T03:58:23.927Z,101545.88
2022-08-25T04:00:53.163Z,101544.94
2022-08-25T04:03:22.728Z,101543.97
2022-08-25T04:05:52.310Z,101536.34
2022-08-25T04:08:22.632Z,101540.38
2022-08-25T04:10:53.198Z,101543.97
2022-08-25T04:13:22.888Z,101536.66
2022-08-25T04:15:52.023Z,101542.97
2022-08-25T04:18:21.273Z,101542.81
2022-08-25T04:20:50.787Z,101530.78
2022-08-25T04:23:19.934Z,101517.81
2022-08-25T04:25:49.122Z,101519.41
2022-08-25T04:28:19.661Z,101531.44
2022-08-25T04:30:51.985Z,101531.09
2022-08-25T04:33:21.495Z,101543.94
2022-08-25T04:35:51.697Z,101528.03
2022-08-25T04:38:20.907Z,101528.34
2022-08-25T04:40:58.442Z,101543.78
2022-08-25T04:43:29.115Z,101532.13
2022-08-25T04:45:58.734Z,101522.06
2022-08-25T04:48:28.156Z,101525.97
2022-08-25T04:50:57.438Z,101531.97
2022-08-25T04:53:26.539Z,101543.31
2022-08-25T04:55:55.693Z,101538.13
2022-08-25T04:58:24.809Z,101537.00
2022-08-25T05:01:02.395Z,101539.41
2022-08-25T05:03:32.362Z,101531.09
2022-08-25T05:06:01.748Z,101547.81
2022-08-25T05:08:31.423Z,101550.72
2022-08-25T05:11:00.672Z,101541.13
2022-08-25T05:13:33.453Z,101546.97
2022-08-25T05:16:04.864Z,101548.78
2022-08-25T05:18:39.001Z,101540.50
2022-08-25T05:21:12.355Z,101535.63
2022-08-25T05:23:41.950Z,101535.59
2022-08-25T05:26:19.577Z,101528.00
2022-08-25T05:28:52.034Z,101544.88
2022-08-25T05:31:25.275Z,101537.06
2022-08-25T05:33:55.426Z,101535.78
2022-08-25T05:36:27.758Z,101531.06
2022-08-25T05:38:57.078Z,101551.16
2022-08-25T05:41:30.059Z,101529.09
2022-08-25T05:43:59.743Z,101545.66
2022-08-25T05:46:32.012Z,101543.38
2022-08-25T05:49:02.047Z,101546.13
2022-08-25T05:51:31.647Z,101551.97
2022-08-25T05:54:00.743Z,101550.69
2022-08-25T05:56:29.974Z,101568.84
2022-08-25T05:58:59.318Z,101546.78
2022-08-25T06:01:48.156Z,101562.00
2022-08-25T06:04:18.303Z,101551.16
2022-08-25T06:06:48.909Z,101569.47
2022-08-25T06:09:18.064Z,101566.72
2022-08-25T06:11:51.700Z,101576.00
2022-08-25T06:14:24.438Z,101572.75
2022-08-25T06:16:55.375Z,101571.00
2022-08-25T06:19:24.932Z,101567.72
2022-08-25T06:21:56.659Z,101547.63
2022-08-25T06:24:27.876Z,101575.38
2022-08-25T06:26:57.932Z,101574.91
2022-08-25T06:29:28.001Z,101574.28
2022-08-25T06:31:58.944Z,101573.78
2022-08-25T06:34:28.215Z,101578.69
2022-08-25T06:36:57.366Z,101582.25
2022-08-25T06:39:29.030Z,101579.47
2022-08-25T06:41:59.149Z,101576.72
2022-08-25T06:44:33.315Z,101592.13
2022-08-25T06:47:03.863Z,101577.06
2022-08-25T06:49:36.249Z,101589.88
2022-08-25T06:52:06.280Z,101568.94
2022-08-25T06:54:35.572Z,101587.59
2022-08-25T06:57:12.647Z,101590.50
2022-08-25T06:59:42.838Z,101582.22
2022-08-25T07:02:15.320Z,101591.16
2022-08-25T07:04:56.949Z,101599.59
2022-08-25T07:07:28.010Z,101595.84
2022-08-25T07:10:15.402Z,101592.44
2022-08-25T07:12:48.676Z,101589.81
2022-08-25T07:15:20.348Z,101585.78
2022-08-25T07:17:51.936Z,101593.69
2022-08-25T07:20:21.406Z,101598.09
2022-08-25T07:22:53.191Z,101597.97
2022-08-25T07:25:22.696Z,101584.81
2022-08-25T07:27:58.685Z,101603.50
2022-08-25T07:30:28.782Z,101615.00
2022-08-25T07:33:00.715Z,101610.16
2022-08-25T07:38:22.475Z,101614.09
2022-08-25T07:40:57.100Z,101620.06
2022-08-25T07:43:26.603Z,101620.53
2022-08-25T07:45:56.284Z,101629.94
2022-08-25T07:48:27.006Z,101631.72
2022-08-25T07:50:56.686Z,101630.50
2022-08-25T07:53:26.283Z,101634.75
2022-08-25T07:56:00.435Z,101645.41
2022-08-25T07:58:32.288Z,101653.41
2022-08-25T08:01:03.839Z,101645.09
2022-08-25T08:03:50.721Z,101657.28
2022-08-25T08:06:23.528Z,101649.13
2022-08-25T08:08:57.941Z,101663.09
2022-08-25T08:11:30.502Z,101657.53
2022-08-25T08:14:00.418Z,101663.47
2022-08-25T08:16:33.049Z,101666.56
2022-08-25T08:19:05.154Z,101657.09
2022-08-25T08:21:37.643Z,101659.59
2022-08-25T08:24:24.927Z,101658.69
2022-08-25T08:26:59.026Z,101664.59
2022-08-25T08:29:28.638Z,101664.31
2022-08-25T08:31:57.762Z,101669.06
2022-08-25T08:34:29.580Z,101671.31
2022-08-25T08:36:59.806Z,101665.75
2022-08-25T08:39:30.891Z,101658.78
2022-08-25T08:42:39.779Z,101676.22
2022-08-25T08:45:26.768Z,101680.25
2022-08-25T08:48:36.934Z,101673.50
2022-08-25T08:51:22.994Z,101659.34
2022-08-25T08:54:00.415Z,101661.63
2022-08-25T08:56:35.927Z,101667.31
2022-08-25T08:59:10.911Z,101656.38
2022-08-25T09:01:52.576Z,101661.56
2022-08-25T09:04:31.307Z,101660.94
2022-08-25T09:07:12.004Z,101656.34
2022-08-25T09:09:44.244Z,101657.22
2022-08-25T09:12:27.800Z,101659.03
2022-08-25T09:15:13.004Z,101672.28
2022-08-25T09:18:07.070Z,101673.16
2022-08-25T09:21:01.980Z,101671.63
2022-08-25T09:23:46.461Z,101669.00
2022-08-25T09:26:31.869Z,101661.88
2022-08-25T09:29:16.212Z,101665.72
2022-08-25T09:31:46.820Z,101656.56
2022-08-25T09:34:22.214Z,101667.81
2022-08-25T09:36:53.498Z,101671.00
2022-08-25T09:39:24.243Z,101657.97
2022-08-25T09:42:00.297Z,101659.44
2022-08-25T09:44:36.406Z,101647.53
2022-08-25T09:47:15.093Z,101639.53
2022-08-25T09:49:49.264Z,101649.59
2022-08-25T09:52:36.362Z,101663.78
2022-08-25T09:55:34.403Z,101649.09
2022-08-25T09:58:22.262Z,101651.56
2022-08-25T10:01:14.440Z,101636.78
2022-08-25T10:04:03.643Z,101647.63
2022-08-25T10:06:45.352Z,101646.84
2022-08-25T10:09:26.740Z,101648.03
2022-08-25T10:12:01.189Z,101644.41
2022-08-25T10:14:44.618Z,101649.63
2022-08-25T10:17:24.814Z,101638.34
2022-08-25T10:20:19.907Z,101631.50
2022-08-25T10:22:50.663Z,101633.06
2022-08-25T10:25:28.125Z,101625.84
2022-08-25T10:28:14.651Z,101638.63
2022-08-25T10:31:01.421Z,101630.41
2022-08-25T10:33:40.808Z,101619.59
2022-08-25T10:36:20.339Z,101631.56
2022-08-25T10:38:58.324Z,101625.50
2022-08-25T10:41:44.276Z,101616.44
2022-08-25T10:44:43.707Z,101622.00
2022-08-25T10:47:48.402Z,101607.94
2022-08-25T10:50:33.208Z,101607.09
2022-08-25T10:53:26.813Z,101610.38
2022-08-25T10:56:08.671Z,101600.97
2022-08-25T10:59:10.680Z,101601.91
2022-08-25T11:02:00.274Z,101613.16
2022-08-25T11:04:38.468Z,101591.91
2022-08-25T11:07:18.327Z,101604.28
2022-08-25T11:09:52.262Z,101599.50
2022-08-25T11:12:31.383Z,101593.88
2022-08-25T11:15:08.495Z,101610.75
2022-08-25T11:17:50.262Z,101598.66
2022-08-25T11:20:27.346Z,101582.44
2022-08-25T11:23:12.970Z,101583.81
2022-08-25T11:25:46.420Z,101583.09
2022-08-25T11:28:27.399Z,101552.31
2022-08-25T11:31:00.409Z,101594.38
2022-08-25T11:33:33.170Z,101587.81
2022-08-25T11:36:14.504Z,101586.22
2022-08-25T11:38:58.782Z,101578.16
2022-08-25T11:41:37.752Z,101580.69
2022-08-25T11:44:53.445Z,101575.03
2022-08-25T11:48:07.612Z,101575.03
2022-08-25T11:50:57.913Z,101567.44
2022-08-25T11:53:30.271Z,101577.03
2022-08-25T11:56:04.587Z,101578.06
2022-08-25T11:58:41.569Z,101573.41
2022-08-25T12:01:34.415Z,101558.84
2022-08-25T12:04:16.595Z,101572.84
2022-08-25T12:07:25.617Z,101574.25
2022-08-25T12:10:22.840Z,101557.72
2022-08-25T12:13:22.659Z,101565.88
2022-08-25T12:16:02.408Z,101561.25
2022-08-25T12:18:46.496Z,101562.16
2022-08-25T12:21:34.807Z,101565.25
2022-08-25T12:24:26.353Z,101566.31
2022-08-25T12:27:02.181Z,101564.69
2022-08-25T12:29:44.539Z,101555.53
2022-08-25T12:32:30.502Z,101567.47
2022-08-25T12:35:33.973Z,101557.34
2022-08-25T12:38:09.119Z,101563.66
2022-08-25T12:40:59.908Z,101567.59
2022-08-25T12:43:33.312Z,101569.16
2022-08-25T12:46:37.666Z,101564.75
2022-08-25T12:49:29.312Z,101554.88
2022-08-25T12:52:03.331Z,101541.97
2022-08-25T12:54:47.776Z,101572.16
2022-08-25T12:57:44.473Z,101560.81
2022-08-25T13:00:22.125Z,101561.16
2022-08-25T13:03:22.924Z,101546.59
2022-08-25T13:06:31.940Z,101560.78
2022-08-25T13:09:48.290Z,101555.38
2022-08-25T13:12:22.890Z,101551.84
2022-08-25T13:14:59.105Z,101546.94
2022-08-25T13:17:30.771Z,101543.94
2022-08-25T13:20:19.909Z,101560.97
2022-08-25T13:22:57.194Z,101549.47
2022-08-25T13:25:33.317Z,101552.25
2022-08-25T13:28:11.235Z,101558.75
2022-08-25T13:30:42.429Z,101549.47
2022-08-25T13:33:20.563Z,101547.88
2022-08-25T13:36:13.149Z,101538.06
2022-08-25T13:38:42.317Z,101541.03
2022-08-25T13:41:28.954Z,101549.78
2022-08-25T13:44:01.841Z,101543.34
2022-08-25T13:46:35.521Z,101551.06
2022-08-25T13:49:08.788Z,101552.19
2022-08-25T13:51:39.733Z,101542.53
2022-08-25T13:54:25.161Z,101541.81
2022-08-25T13:56:54.728Z,101540.19
2022-08-25T13:59:29.325Z,101536.59
2022-08-25T14:02:00.720Z,101536.22
2022-08-25T14:04:34.176Z,101542.56
2022-08-25T14:07:34.077Z,101540.06
2022-08-25T14:10:08.744Z,101524.66
2022-08-25T14:12:44.682Z,101521.69
2022-08-25T14:15:33.378Z,101530.25
2022-08-25T14:18:09.073Z,101523.28
2022-08-25T14:20:44.910Z,101526.53
2022-08-25T14:23:20.214Z,101526.94
2022-08-25T14:25:51.816Z,101530.09
2022-08-25T14:28:23.981Z,101522.47
2022-08-25T14:30:58.540Z,101511.66
2022-08-25T14:33:34.250Z,101520.13
2022-08-25T14:36:05.400Z,101524.94
2022-08-25T14:38:38.986Z,101496.88
2022-08-25T14:41:10.446Z,101520.06
2022-08-25T14:43:39.665Z,101514.41
2022-08-25T14:46:20.019Z,101504.28
2022-08-25T14:48:55.587Z,101505.41
2022-08-25T14:51:26.137Z,101507.31
2022-08-25T14:54:00.603Z,101499.63
2022-08-25T14:56:30.328Z,101497.97
2022-08-25T14:59:01.384Z,101497.16
2022-08-25T15:01:31.250Z,101497.09
2022-08-25T15:04:05.987Z,101499.56
2022-08-25T15:06:37.590Z,101477.78
2022-08-25T15:09:13.802Z,101496.19
2022-08-25T15:11:45.933Z,101504.81
2022-08-25T15:14:17.401Z,101492.66
2022-08-25T15:16:50.233Z,101499.63
2022-08-25T15:19:24.692Z,101497.34
2022-08-25T15:21:58.107Z,101496.91
2022-08-25T15:24:29.908Z,101491.16
2022-08-25T15:27:02.933Z,101504.41
2022-08-25T15:29:36.122Z,101483.97
2022-08-25T15:32:08.905Z,101495.94
2022-08-25T15:34:39.977Z,101492.00
2022-08-25T15:37:12.182Z,101486.06
2022-08-25T15:39:43.377Z,101475.25
2022-08-25T15:42:13.990Z,101481.59
2022-08-25T15:44:52.940Z,101483.69
2022-08-25T15:47:24.183Z,101475.25
2022-08-25T15:50:06.178Z,101465.72
2022-08-25T15:52:46.302Z,101471.72
2022-08-25T15:55:18.177Z,101476.81
2022-08-25T15:57:49.500Z,101474.13
2022-08-25T16:00:21.641Z,101469.00
2022-08-25T16:02:51.194Z,101453.03
2022-08-25T16:05:25.642Z,101469.38
2022-08-25T16:07:55.620Z,101461.44
2022-08-25T16:10:25.155Z,101448.34
2022-08-25T16:12:54.360Z,101456.84
2022-08-25T16:15:28.840Z,101441.19
2022-08-25T16:18:01.331Z,101446.06
2022-08-25T16:20:37.235Z,101445.56
2022-08-25T16:23:06.714Z,101448.66
2022-08-25T16:25:41.785Z,101437.81
2022-08-25T16:28:13.668Z,101444.28
2022-08-25T16:30:52.593Z,101439.47
2022-08-25T16:33:22.853Z,101442.69
2022-08-25T16:35:53.393Z,101444.69
2022-08-25T16:38:22.716Z,101450.28
2022-08-25T16:40:51.900Z,101450.28
2022-08-25T16:43:21.216Z,101422.97
2022-08-25T16:45:59.777Z,101427.78
2022-08-25T16:48:31.061Z,101426.88
2022-08-25T16:51:01.645Z,101431.75
2022-08-25T16:53:50.567Z,101429.63
2022-08-25T16:56:24.707Z,101427.94
2022-08-25T16:58:59.396Z,101436.03
2022-08-25T17:01:31.658Z,101433.59
2022-08-25T17:04:01.049Z,101435.13
2022-08-25T17:06:38.072Z,101419.03
2022-08-25T17:09:09.446Z,101440.72
2022-08-25T17:11:46.755Z,101437.47
2022-08-25T17:14:19.264Z,101423.00
2022-08-25T17:16:50.548Z,101437.38
2022-08-25T17:19:21.053Z,101426.16
2022-08-25T17:21:55.294Z,101437.44
2022-08-25T17:24:29.492Z,101435.47
2022-08-25T17:27:02.056Z,101438.31
2022-08-25T17:29:31.383Z,101433.09
2022-08-25T17:32:00.543Z,101437.38
2022-08-25T17:34:30.835Z,101426.13
2022-08-25T17:37:02.421Z,101432.41
2022-08-25T17:39:32.642Z,101432.25
2022-08-25T17:42:01.786Z,101426.66
2022-08-25T17:44:31.101Z,101429.78
2022-08-25T17:47:00.657Z,101419.09
2022-08-25T17:49:29.920Z,101417.09
2022-08-25T17:52:01.084Z,101411.09
2022-08-25T17:54:30.954Z,101411.13
2022-08-25T17:57:01.720Z,101417.53
2022-08-25T17:59:32.622Z,101409.16
2022-08-25T18:02:03.520Z,101418.00
2022-08-25T18:04:34.003Z,101408.66
2022-08-25T18:07:04.664Z,101415.78
2022-08-25T18:09:34.555Z,101408.84
2022-08-25T18:12:04.982Z,101417.97
2022-08-25T18:14:34.205Z,101423.84
2022-08-25T18:17:04.179Z,101427.72
2022-08-25T18:19:34.280Z,101424.53
2022-08-25T18:22:06.273Z,101420.78
2022-08-25T18:24:36.090Z,101417.13
2022-08-25T18:27:05.816Z,101414.75
2022-08-25T18:29:38.640Z,101385.16
2022-08-25T18:32:12.447Z,101415.22
2022-08-25T18:34:42.038Z,101416.03
2022-08-25T18:37:30.169Z,101410.75
2022-08-25T18:40:16.689Z,101412.13
2022-08-25T18:42:45.951Z,101423.28
2022-08-25T18:45:15.374Z,101430.50
2022-08-25T18:47:44.607Z,101409.66
2022-08-25T18:50:13.930Z,101420.84
2022-08-25T18:52:45.814Z,101418.84
2022-08-25T18:55:15.073Z,101415.22
2022-08-25T18:57:44.402Z,101406.22
2022-08-25T19:00:19.019Z,101417.78
2022-08-25T19:02:51.430Z,101432.38
2022-08-25T19:05:23.881Z,101405.84
2022-08-25T19:07:54.705Z,101431.16
2022-08-25T19:10:24.876Z,101411.53
2022-08-25T19:12:54.501Z,101412.66
2022-08-25T19:15:31.195Z,101437.53
2022-08-25T19:18:00.876Z,101432.63
2022-08-25T19:20:30.865Z,101410.75
2022-08-25T19:23:02.338Z,101418.91
2022-08-25T19:25:33.168Z,101423.66
2022-08-25T19:28:05.875Z,101432.44
2022-08-25T19:30:36.039Z,101426.78
2022-08-25T19:33:11.625Z,101415.66
2022-08-25T19:35:46.264Z,101437.50
2022-08-25T19:38:34.151Z,101425.72
2022-08-25T19:41:14.227Z,101443.13
2022-08-25T19:43:55.600Z,101447.97
2022-08-25T19:46:33.262Z,101442.16
2022-08-25T19:49:08.337Z,101438.44
2022-08-25T19:51:44.352Z,101447.53
2022-08-25T19:54:20.545Z,101441.53
2022-08-25T19:56:55.037Z,101444.75
2022-08-25T19:59:34.125Z,101445.13
2022-08-25T20:02:07.559Z,101442.75
2022-08-25T20:04:40.070Z,101445.91
2022-08-25T20:07:12.505Z,101440.34
2022-08-25T20:09:45.135Z,101430.25
2022-08-25T20:14:49.099Z,101435.94
2022-08-25T20:17:24.598Z,101438.28
2022-08-25T20:19:57.191Z,101447.06
2022-08-25T20:22:27.737Z,101452.94
2022-08-25T20:25:01.650Z,101446.03
2022-08-25T20:27:36.052Z,101451.88
2022-08-25T20:30:13.330Z,101451.38
2022-08-25T20:32:42.918Z,101454.88
2022-08-25T20:35:15.448Z,101451.00
2022-08-25T20:37:47.641Z,101444.50
2022-08-25T20:40:25.292Z,101446.25
2022-08-25T20:42:55.844Z,101443.31
2022-08-25T20:45:25.544Z,101448.59
2022-08-25T20:47:54.734Z,101447.53
2022-08-25T20:50:24.638Z,101456.31
2022-08-25T20:52:56.852Z,101448.91
2022-08-25T20:55:29.369Z,101457.84
2022-08-25T20:57:59.029Z,101468.59
2022-08-25T21:00:28.274Z,101457.31
2022-08-25T21:02:57.467Z,101453.56
2022-08-25T21:05:26.693Z,101448.03
2022-08-25T21:07:55.864Z,101462.97
2022-08-25T21:10:25.395Z,101463.69
2022-08-25T21:12:56.119Z,101467.53
2022-08-25T21:15:25.468Z,101463.41
2022-08-25T21:17:56.174Z,101451.50
2022-08-25T21:20:27.100Z,101463.59
2022-08-25T21:22:56.775Z,101476.44
2022-08-25T21:25:26.361Z,101474.81
2022-08-25T21:27:56.937Z,101461.38
2022-08-25T21:30:26.872Z,101459.41
2022-08-25T21:32:57.759Z,101461.63
2022-08-25T21:35:27.776Z,101450.34
2022-08-25T21:37:58.809Z,101459.59
2022-08-25T21:40:28.053Z,101447.31
2022-08-25T21:42:58.672Z,101438.16
2022-08-25T21:45:27.996Z,101455.47
2022-08-25T21:48:06.504Z,101458.31
2022-08-25T21:50:35.814Z,101455.91
2022-08-25T21:53:05.147Z,101450.63
2022-08-25T21:55:39.245Z,101450.63
2022-08-25T21:58:13.122Z,101433.59
2022-08-25T22:00:43.850Z,101448.91
2022-08-25T22:03:13.143Z,101447.66
2022-08-25T22:05:42.283Z,101437.38
2022-08-25T22:08:14.659Z,101445.69
2022-08-25T22:10:45.789Z,101421.28
2022-08-25T22:13:16.425Z,101438.53
2022-08-25T22:15:47.412Z,101442.31
2022-08-25T22:18:22.306Z,101437.72
2022-08-25T22:20:52.643Z,101432.25
2022-08-25T22:23:22.455Z,101437.56
2022-08-25T22:25:58.355Z,101442.75
2022-08-25T22:28:29.314Z,101427.22
2022-08-25T22:31:02.527Z,101442.91
2022-08-25T22:33:31.788Z,101446.13
2022-08-25T22:36:00.868Z,101440.59
2022-08-25T22:38:30.403Z,101435.75
2022-08-25T22:41:03.749Z,101430.19
2022-08-25T22:43:34.504Z,101440.41
2022-08-25T22:46:05.381Z,101420.88
2022-08-25T22:48:35.859Z,101436.19
2022-08-25T22:51:09.423Z,101435.28
2022-08-25T22:53:40.694Z,101443.00
2022-08-25T22:56:11.530Z,101430.66
2022-08-25T22:58:42.706Z,101430.38
2022-08-25T23:01:21.784Z,101430.38
2022-08-25T23:03:50.939Z,101436.75
2022-08-25T23:06:24.811Z,101424.38
2022-08-25T23:08:56.396Z,101419.53
2022-08-25T23:11:27.129Z,101429.22
2022-08-25T23:14:02.284Z,101431.63
2022-08-25T23:16:32.257Z,101428.41
2022-08-25T23:19:02.534Z,101427.06
2022-08-25T23:21:49.119Z,101429.84
2022-08-25T23:24:29.994Z,101432.97
2022-08-25T23:27:01.333Z,101423.66
2022-08-25T23:29:34.222Z,101417.69
2022-08-25T23:32:04.129Z,101420.72
2022-08-25T23:34:33.848Z,101420.34
2022-08-25T23:37:03.481Z,101401.78
2022-08-25T23:39:32.982Z,101416.31
2022-08-25T23:42:02.181Z,101415.03
2022-08-25T23:44:36.685Z,101415.84
2022-08-25T23:47:06.844Z,101415.75
2022-08-25T23:49:36.026Z,101412.69
2022-08-25T23:52:06.148Z,101418.63
2022-08-25T23:54:35.528Z,101410.78
2022-08-25T23:57:06.829Z,101417.69
2022-08-25T23:59:38.409Z,101409.38
